createdAt,value
2018-03-29T00:01:33.807Z,20.40
2018-03-29T00:04:36.950Z,20.50
2018-03-29T00:07:40.113Z,20.40
2018-03-29T00:10:43.218Z,20.40
2018-03-29T00:13:46.346Z,20.40
2018-03-29T00:16:49.453Z,20.40
2018-03-29T00:19:52.578Z,20.30
2018-03-29T00:22:56.469Z,20.30
2018-03-29T00:25:59.564Z,20.20
2018-03-29T00:29:02.729Z,20.20
2018-03-29T00:32:06.674Z,20.20
2018-03-29T00:35:09.904Z,20.20
2018-03-29T00:38:13.034Z,20.20
2018-03-29T00:41:17.652Z,20.20
2018-03-29T00:44:20.786Z,20.20
2018-03-29T00:47:23.878Z,20.20
2018-03-29T00:50:27.008Z,20.10
2018-03-29T00:53:42.039Z,20.10
2018-03-29T00:56:45.144Z,20.10
2018-03-29T00:59:48.267Z,20.10
2018-03-29T01:02:51.373Z,20.20
2018-03-29T01:05:54.496Z,20.20
2018-03-29T01:08:57.652Z,20.30
2018-03-29T01:12:01.522Z,20.30
2018-03-29T01:15:04.676Z,20.30
2018-03-29T01:18:07.778Z,20.40
2018-03-29T01:21:10.934Z,20.40
2018-03-29T01:24:14.071Z,20.40
2018-03-29T01:27:17.177Z,20.40
2018-03-29T01:30:20.306Z,20.40
2018-03-29T01:33:23.412Z,20.40
2018-03-29T01:36:26.543Z,20.30
2018-03-29T01:39:30.455Z,20.30
2018-03-29T01:42:33.548Z,20.30
2018-03-29T01:45:36.846Z,20.30
2018-03-29T01:48:39.939Z,20.30
2018-03-29T01:51:43.068Z,20.20
2018-03-29T01:54:46.198Z,20.00
2018-03-29T01:57:49.298Z,20.00
2018-03-29T02:00:52.419Z,20.10
2018-03-29T02:03:55.510Z,20.10
2018-03-29T02:06:58.629Z,20.10
2018-03-29T02:10:01.777Z,20.10
2018-03-29T02:13:04.914Z,20.10
2018-03-29T02:16:08.042Z,20.10
2018-03-29T02:19:11.146Z,20.20
2018-03-29T02:22:14.270Z,20.20
2018-03-29T02:25:17.371Z,20.20
2018-03-29T02:28:20.503Z,20.20
2018-03-29T02:31:23.626Z,20.30
2018-03-29T02:34:26.738Z,20.30
2018-03-29T02:37:29.870Z,20.40
2018-03-29T02:40:33.002Z,20.40
2018-03-29T02:43:36.115Z,20.40
2018-03-29T02:46:39.240Z,20.40
2018-03-29T02:49:43.116Z,20.40
2018-03-29T02:52:46.240Z,20.30
2018-03-29T02:55:49.382Z,20.30
2018-03-29T02:58:52.473Z,20.30
2018-03-29T03:01:55.594Z,20.30
2018-03-29T03:04:58.703Z,20.30
2018-03-29T03:08:02.619Z,20.20
2018-03-29T03:11:05.839Z,20.20
2018-03-29T03:14:09.721Z,20.20
2018-03-29T03:17:12.840Z,20.20
2018-03-29T03:20:15.938Z,20.20
2018-03-29T03:23:19.058Z,20.20
2018-03-29T03:26:22.189Z,20.20
2018-03-29T03:29:25.304Z,20.10
2018-03-29T03:32:28.433Z,20.10
2018-03-29T03:35:32.290Z,20.10
2018-03-29T03:38:35.462Z,20.10
2018-03-29T03:41:39.353Z,20.20
2018-03-29T03:44:42.473Z,20.20
2018-03-29T03:47:45.616Z,20.20
2018-03-29T03:50:48.721Z,20.30
2018-03-29T03:53:51.848Z,20.30
2018-03-29T03:56:55.030Z,20.30
2018-03-29T03:59:58.909Z,20.30
2018-03-29T04:03:02.047Z,20.30
2018-03-29T04:06:05.164Z,20.30
2018-03-29T04:09:09.052Z,20.30
2018-03-29T04:12:12.198Z,20.30
2018-03-29T04:15:16.066Z,20.30
2018-03-29T04:18:19.200Z,20.30
2018-03-29T04:21:22.356Z,20.20
2018-03-29T04:24:25.521Z,20.20
2018-03-29T04:27:28.637Z,20.20
2018-03-29T04:30:31.733Z,20.20
2018-03-29T04:33:34.879Z,20.20
2018-03-29T04:36:38.747Z,20.10
2018-03-29T04:39:41.869Z,20.10
2018-03-29T04:42:44.963Z,20.10
2018-03-29T04:45:48.092Z,20.10
2018-03-29T04:48:51.218Z,20.10
2018-03-29T04:51:54.324Z,20.10
2018-03-29T04:54:57.445Z,20.10
2018-03-29T04:58:01.315Z,20.10
2018-03-29T05:01:04.443Z,20.10
2018-03-29T05:04:07.571Z,20.10
2018-03-29T05:07:10.667Z,20.20
2018-03-29T05:10:13.787Z,20.20
2018-03-29T05:13:16.880Z,20.30
2018-03-29T05:16:20.006Z,20.30
2018-03-29T05:19:23.131Z,20.30
2018-03-29T05:22:27.015Z,20.40
2018-03-29T05:25:35.058Z,20.40
2018-03-29T05:28:38.151Z,20.40
2018-03-29T05:31:41.277Z,20.40
2018-03-29T05:34:44.398Z,20.40
2018-03-29T05:37:48.268Z,20.30
2018-03-29T05:40:51.441Z,20.30
2018-03-29T05:43:55.277Z,20.20
2018-03-29T05:46:58.401Z,20.20
2018-03-29T05:50:01.556Z,20.20
2018-03-29T05:53:06.201Z,20.20
2018-03-29T05:56:09.335Z,20.20
2018-03-29T05:59:12.437Z,20.20
2018-03-29T06:02:16.321Z,20.20
2018-03-29T06:05:19.476Z,20.10
2018-03-29T06:08:23.354Z,20.20
2018-03-29T06:11:26.468Z,20.10
2018-03-29T06:14:34.990Z,20.20
2018-03-29T06:17:38.105Z,20.30
2018-03-29T06:20:41.235Z,20.40
2018-03-29T06:23:44.343Z,20.50
2018-03-29T06:26:47.488Z,20.60
2018-03-29T06:29:50.605Z,20.70
2018-03-29T06:32:53.743Z,20.70
2018-03-29T06:35:56.883Z,20.80
2018-03-29T06:39:00.746Z,20.90
2018-03-29T06:42:03.870Z,20.90
2018-03-29T06:45:06.980Z,20.90
2018-03-29T06:48:10.118Z,20.90
2018-03-29T06:51:13.234Z,20.90
2018-03-29T06:54:16.376Z,20.80
2018-03-29T06:57:19.530Z,20.80
2018-03-29T07:00:22.630Z,20.70
2018-03-29T07:03:25.766Z,20.70
2018-03-29T07:06:29.682Z,20.60
2018-03-29T07:09:32.830Z,20.60
2018-03-29T07:12:36.064Z,20.60
2018-03-29T07:15:39.209Z,20.60
2018-03-29T07:18:42.351Z,20.60
2018-03-29T07:21:46.246Z,20.40
2018-03-29T07:24:49.351Z,20.40
2018-03-29T07:27:53.275Z,20.30
2018-03-29T07:30:56.380Z,20.30
2018-03-29T07:33:59.506Z,20.30
2018-03-29T07:37:03.406Z,20.30
2018-03-29T07:40:06.522Z,20.30
2018-03-29T07:43:09.641Z,20.30
2018-03-29T07:46:12.777Z,20.40
2018-03-29T07:49:16.673Z,20.50
2018-03-29T07:52:19.835Z,20.50
2018-03-29T07:55:23.733Z,20.60
2018-03-29T07:58:27.628Z,20.70
2018-03-29T08:01:30.737Z,20.60
2018-03-29T08:04:33.870Z,20.70
2018-03-29T08:07:37.742Z,20.70
2018-03-29T08:10:40.856Z,20.70
2018-03-29T08:13:43.965Z,20.70
2018-03-29T08:16:47.064Z,20.60
2018-03-29T08:19:50.180Z,20.30
2018-03-29T08:22:53.303Z,20.10
2018-03-29T08:25:56.461Z,20.10
2018-03-29T08:28:59.615Z,20.10
2018-03-29T08:32:02.678Z,20.20
2018-03-29T08:35:05.815Z,20.20
2018-03-29T08:38:08.908Z,20.20
2018-03-29T08:41:12.061Z,20.20
2018-03-29T08:44:15.179Z,20.30
2018-03-29T08:47:18.287Z,20.30
2018-03-29T08:50:21.403Z,20.30
2018-03-29T08:53:25.270Z,20.30
2018-03-29T08:56:28.383Z,20.30
2018-03-29T08:59:31.510Z,20.30
2018-03-29T09:02:34.654Z,20.30
2018-03-29T09:05:38.528Z,20.40
2018-03-29T09:08:41.625Z,20.40
2018-03-29T09:11:44.784Z,20.40
2018-03-29T09:14:47.910Z,20.50
2018-03-29T09:17:51.780Z,20.50
2018-03-29T09:20:54.905Z,20.50
2018-03-29T09:23:58.059Z,20.50
2018-03-29T09:27:01.170Z,20.50
2018-03-29T09:30:04.264Z,20.50
2018-03-29T09:33:08.160Z,20.50
2018-03-29T09:36:11.284Z,20.40
2018-03-29T09:39:14.403Z,20.40
2018-03-29T09:42:18.290Z,20.40
2018-03-29T09:45:21.378Z,20.40
2018-03-29T09:48:24.549Z,20.40
2018-03-29T09:51:28.480Z,20.30
2018-03-29T09:54:32.343Z,20.30
2018-03-29T09:57:35.461Z,20.30
2018-03-29T10:00:38.557Z,20.30
2018-03-29T10:03:41.678Z,20.40
2018-03-29T10:06:47.618Z,20.40
2018-03-29T10:09:50.705Z,20.30
2018-03-29T10:12:54.582Z,20.40
2018-03-29T10:15:57.729Z,20.30
2018-03-29T10:19:01.598Z,20.40
2018-03-29T10:22:04.713Z,20.40
2018-03-29T10:25:07.810Z,20.40
2018-03-29T10:28:10.940Z,20.40
2018-03-29T10:31:14.030Z,20.40
2018-03-29T10:34:17.149Z,20.40
2018-03-29T10:37:20.277Z,20.40
2018-03-29T10:40:23.364Z,20.50
2018-03-29T10:43:26.472Z,20.50
2018-03-29T10:46:29.602Z,20.50
2018-03-29T10:49:32.717Z,20.50
2018-03-29T10:52:35.851Z,20.50
2018-03-29T10:55:39.712Z,20.50
2018-03-29T10:58:42.831Z,20.50
2018-03-29T11:01:45.931Z,20.50
2018-03-29T11:04:49.055Z,20.40
2018-03-29T11:07:52.189Z,20.40
2018-03-29T11:10:55.300Z,20.40
2018-03-29T11:13:59.187Z,20.40
2018-03-29T11:17:02.293Z,20.40
2018-03-29T11:20:05.435Z,20.40
2018-03-29T11:23:08.595Z,20.40
2018-03-29T11:26:11.732Z,20.40
2018-03-29T11:29:14.930Z,20.40
2018-03-29T11:32:18.052Z,20.40
2018-03-29T11:35:21.194Z,20.40
2018-03-29T11:38:25.050Z,20.30
2018-03-29T11:41:28.198Z,20.30
2018-03-29T11:44:31.332Z,20.30
2018-03-29T11:47:34.473Z,20.30
2018-03-29T11:50:37.614Z,20.30
2018-03-29T11:53:40.720Z,20.30
2018-03-29T11:56:43.846Z,20.40
2018-03-29T11:59:46.984Z,20.40
2018-03-29T12:02:50.874Z,20.50
2018-03-29T12:05:54.009Z,20.40
2018-03-29T12:08:57.946Z,20.50
2018-03-29T12:12:01.854Z,20.60
2018-03-29T12:15:05.001Z,20.50
2018-03-29T12:18:08.129Z,20.60
2018-03-29T12:21:11.445Z,20.60
2018-03-29T12:24:14.597Z,20.60
2018-03-29T12:27:18.539Z,20.50
2018-03-29T12:30:22.434Z,20.50
2018-03-29T12:33:25.579Z,20.50
2018-03-29T12:36:28.694Z,20.50
2018-03-29T12:39:31.800Z,20.50
2018-03-29T12:42:34.924Z,20.50
2018-03-29T12:45:38.068Z,20.40
2018-03-29T12:48:41.159Z,20.40
2018-03-29T12:51:44.289Z,20.40
2018-03-29T12:54:59.190Z,20.40
2018-03-29T12:58:09.884Z,20.40
2018-03-29T13:01:13.764Z,20.40
2018-03-29T13:04:16.874Z,20.40
2018-03-29T13:07:19.991Z,20.40
2018-03-29T13:10:23.079Z,20.40
2018-03-29T13:13:26.202Z,20.40
2018-03-29T13:16:29.327Z,20.40
2018-03-29T13:19:32.435Z,20.40
2018-03-29T13:22:35.569Z,20.40
2018-03-29T13:25:39.461Z,20.50
2018-03-29T13:28:42.575Z,20.50
2018-03-29T13:31:45.693Z,20.50
2018-03-29T13:34:49.586Z,20.50
2018-03-29T13:37:52.707Z,20.60
2018-03-29T13:40:55.845Z,20.60
2018-03-29T13:43:59.704Z,20.60
2018-03-29T13:47:02.829Z,20.60
2018-03-29T13:50:05.920Z,20.60
2018-03-29T13:53:09.042Z,20.50
2018-03-29T13:56:12.138Z,20.50
2018-03-29T13:59:15.261Z,20.50
2018-03-29T14:02:18.386Z,20.40
2018-03-29T14:05:21.478Z,20.40
2018-03-29T14:08:24.603Z,20.40
2018-03-29T14:11:27.702Z,20.40
2018-03-29T14:14:30.826Z,20.40
2018-03-29T14:17:33.969Z,20.40
2018-03-29T14:20:37.082Z,20.40
2018-03-29T14:23:40.207Z,20.40
2018-03-29T14:26:43.297Z,20.40
2018-03-29T14:29:46.419Z,20.40
2018-03-29T14:32:49.561Z,20.40
2018-03-29T14:35:52.661Z,20.40
2018-03-29T14:38:55.804Z,20.40
2018-03-29T14:41:59.688Z,20.40
2018-03-29T14:45:02.836Z,20.40
2018-03-29T14:48:06.699Z,20.40
2018-03-29T14:51:09.835Z,20.40
2018-03-29T14:54:12.956Z,20.40
2018-03-29T14:57:16.052Z,20.50
2018-03-29T15:00:19.211Z,20.50
2018-03-29T15:03:23.070Z,20.50
2018-03-29T15:06:26.186Z,20.50
2018-03-29T15:09:29.312Z,20.50
2018-03-29T15:12:32.410Z,20.50
2018-03-29T15:15:35.578Z,20.50
2018-03-29T15:18:38.690Z,20.50
2018-03-29T15:21:41.866Z,20.50
2018-03-29T15:24:44.945Z,20.40
2018-03-29T15:27:48.039Z,20.40
2018-03-29T15:30:51.207Z,20.40
2018-03-29T15:33:55.062Z,20.30
2018-03-29T15:36:58.189Z,20.40
2018-03-29T15:40:01.290Z,20.30
2018-03-29T15:43:04.414Z,20.30
2018-03-29T15:46:07.532Z,20.30
2018-03-29T15:49:10.639Z,20.30
2018-03-29T15:52:13.756Z,20.30
2018-03-29T15:55:16.856Z,20.30
2018-03-29T15:58:19.982Z,20.30
2018-03-29T16:01:23.871Z,20.30
2018-03-29T16:04:27.008Z,20.30
2018-03-29T16:07:30.118Z,20.30
2018-03-29T16:10:33.249Z,20.40
2018-03-29T16:13:36.389Z,20.40
2018-03-29T16:16:39.579Z,20.40
2018-03-29T16:19:42.672Z,20.50
2018-03-29T16:22:46.545Z,20.60
2018-03-29T16:25:49.702Z,20.50
2018-03-29T16:28:53.588Z,20.60
2018-03-29T16:31:56.726Z,20.60
2018-03-29T16:35:00.666Z,20.60
2018-03-29T16:38:04.592Z,20.50
2018-03-29T16:41:08.490Z,20.50
2018-03-29T16:44:11.606Z,20.50
2018-03-29T16:47:14.724Z,20.50
2018-03-29T16:50:18.582Z,20.40
2018-03-29T16:53:21.699Z,20.40
2018-03-29T16:56:24.879Z,20.40
2018-03-29T16:59:28.008Z,20.40
2018-03-29T17:02:31.121Z,20.40
2018-03-29T17:05:34.267Z,20.30
2018-03-29T17:08:37.402Z,20.30
2018-03-29T17:11:41.270Z,20.30
2018-03-29T17:14:44.393Z,20.30
2018-03-29T17:17:47.511Z,20.30
2018-03-29T17:20:50.602Z,20.30
2018-03-29T17:23:54.437Z,20.30
2018-03-29T17:26:57.569Z,20.30
2018-03-29T17:30:01.450Z,20.30
2018-03-29T17:33:04.662Z,20.30
2018-03-29T17:36:07.800Z,20.40
2018-03-29T17:39:10.935Z,20.40
2018-03-29T17:42:14.860Z,20.50
2018-03-29T17:45:18.757Z,20.50
2018-03-29T17:48:21.845Z,20.50
2018-03-29T17:51:24.963Z,20.50
2018-03-29T17:54:28.138Z,20.60
2018-03-29T17:57:31.219Z,20.60
2018-03-29T18:00:35.125Z,20.60
2018-03-29T18:03:38.270Z,20.60
2018-03-29T18:06:41.387Z,20.60
2018-03-29T18:09:44.839Z,20.60
2018-03-29T18:12:47.946Z,20.60
2018-03-29T18:15:51.065Z,20.60
2018-03-29T18:18:54.165Z,20.60
2018-03-29T18:21:58.076Z,20.70
2018-03-29T18:25:01.211Z,20.60
2018-03-29T18:28:04.325Z,20.70
2018-03-29T18:31:08.226Z,20.70
2018-03-29T18:34:11.322Z,20.70
2018-03-29T18:37:14.455Z,20.70
2018-03-29T18:40:17.582Z,20.70
2018-03-29T18:43:21.444Z,20.70
2018-03-29T18:46:24.562Z,20.70
2018-03-29T18:49:27.663Z,20.70
2018-03-29T18:52:30.788Z,20.70
2018-03-29T18:55:33.995Z,20.70
2018-03-29T18:58:37.130Z,20.70
2018-03-29T19:01:40.281Z,20.80
2018-03-29T19:04:43.394Z,20.80
2018-03-29T19:07:46.519Z,20.80
2018-03-29T19:10:49.651Z,20.90
2018-03-29T19:13:52.747Z,20.90
2018-03-29T19:16:55.882Z,20.90
2018-03-29T19:19:59.014Z,20.90
2018-03-29T19:23:02.902Z,20.90
2018-03-29T19:26:06.016Z,21.00
2018-03-29T19:29:09.129Z,20.90
2018-03-29T19:32:13.760Z,20.90
2018-03-29T19:35:16.884Z,20.90
2018-03-29T19:38:20.476Z,20.90
2018-03-29T19:41:23.571Z,20.90
2018-03-29T19:44:26.713Z,20.90
2018-03-29T19:47:29.856Z,20.90
2018-03-29T19:50:32.968Z,20.90
2018-03-29T19:53:36.238Z,20.80
2018-03-29T19:56:39.351Z,20.80
2018-03-29T19:59:43.290Z,20.70
2018-03-29T20:02:47.179Z,20.70
2018-03-29T20:05:50.295Z,20.70
2018-03-29T20:08:53.506Z,20.60
2018-03-29T20:15:06.969Z,20.60
2018-03-29T20:18:10.106Z,20.60
2018-03-29T20:21:13.223Z,20.60
2018-03-29T20:24:16.671Z,20.70
2018-03-29T20:27:19.831Z,20.70
2018-03-29T20:30:22.944Z,20.80
2018-03-29T20:33:26.125Z,20.90
2018-03-29T20:36:29.245Z,21.00
2018-03-29T20:39:32.438Z,21.10
2018-03-29T20:42:35.591Z,21.10
2018-03-29T20:45:38.742Z,21.00
2018-03-29T20:48:41.941Z,21.00
2018-03-29T20:51:45.804Z,20.90
2018-03-29T20:54:48.944Z,20.90
2018-03-29T20:57:52.070Z,20.90
2018-03-29T21:00:55.936Z,20.80
2018-03-29T21:03:59.061Z,20.80
2018-03-29T21:07:02.174Z,20.80
2018-03-29T21:10:05.306Z,20.70
2018-03-29T21:13:08.437Z,20.70
2018-03-29T21:16:12.311Z,20.60
2018-03-29T21:19:15.442Z,20.60
2018-03-29T21:22:18.542Z,20.60
2018-03-29T21:25:21.677Z,20.60
2018-03-29T21:28:25.573Z,20.60
2018-03-29T21:31:28.676Z,20.60
2018-03-29T21:34:31.846Z,20.60
2018-03-29T21:37:34.983Z,20.60
2018-03-29T21:40:38.123Z,20.60
2018-03-29T21:43:41.363Z,20.60
2018-03-29T21:46:45.297Z,20.80
2018-03-29T21:49:48.456Z,20.70
2018-03-29T21:52:51.550Z,20.80
2018-03-29T21:55:54.672Z,20.90
2018-03-29T21:58:57.795Z,20.90
2018-03-29T22:02:00.898Z,21.00
2018-03-29T22:05:04.881Z,21.00
2018-03-29T22:08:07.980Z,21.00
2018-03-29T22:11:11.114Z,21.00
2018-03-29T22:14:14.257Z,21.00
2018-03-29T22:17:17.360Z,20.90
2018-03-29T22:20:21.328Z,20.80
2018-03-29T22:23:24.444Z,20.90
2018-03-29T22:26:27.589Z,20.80
2018-03-29T22:29:30.752Z,20.80
2018-03-29T22:32:33.865Z,20.80
2018-03-29T22:35:37.014Z,20.70
2018-03-29T22:38:40.122Z,20.70
2018-03-29T22:41:43.279Z,20.70
2018-03-29T22:44:46.400Z,20.60
2018-03-29T22:47:49.585Z,20.60
2018-03-29T22:50:53.466Z,20.60
2018-03-29T22:53:56.595Z,20.60
2018-03-29T22:56:59.727Z,20.60
2018-03-29T23:00:03.633Z,20.60
2018-03-29T23:03:06.741Z,20.60
2018-03-29T23:06:09.873Z,20.60
2018-03-29T23:09:12.994Z,20.70
2018-03-29T23:12:16.210Z,20.70
2018-03-29T23:15:19.310Z,20.70
2018-03-29T23:18:22.439Z,20.80
2018-03-29T23:21:25.582Z,20.90
2018-03-29T23:24:28.686Z,20.90
2018-03-29T23:27:31.820Z,20.90
2018-03-29T23:30:34.958Z,20.90
2018-03-29T23:33:38.082Z,20.90
2018-03-29T23:36:41.224Z,20.90
2018-03-29T23:39:44.335Z,20.80
2018-03-29T23:42:47.466Z,20.80
2018-03-29T23:45:51.357Z,20.70
2018-03-29T23:48:54.494Z,20.70
2018-03-29T23:51:58.377Z,20.70
2018-03-29T23:55:01.484Z,20.70
2018-03-29T23:58:16.362Z,20.60
